Time,TemperatureF,DewpointF,PressureIn,WindDirection,WindDirectionDegrees,WindSpeedMPH,WindSpeedGustMPH,Humidity,HourlyPrecipIn,Conditions,Clouds,dailyrainin,SoftwareType,DateUTC
2013-01-31 00:01:00,26.2,20.9,30.07,SW,229,0.0,0.0,80,0.00,,,0.00,VWS V13.01,2013-01-31 06:01:00,
2013-01-31 00:06:00,26.4,21.1,30.07,WSW,248,0.0,0.0,80,0.00,,,0.00,VWS V13.01,2013-01-31 06:06:00,
2013-01-31 00:11:00,26.6,21.5,30.07,WSW,248,0.0,0.0,81,0.00,,,0.00,VWS V13.01,2013-01-31 06:11:00,
2013-01-31 00:16:00,26.6,21.2,30.04,WSW,256,0.0,0.0,80,0.00,,,0.00,VWS V13.01,2013-01-31 06:16:00,
2013-01-31 00:21:00,26.6,21.2,30.04,WSW,239,2.7,2.7,80,0.00,,,0.00,VWS V13.01,2013-01-31 06:21:00,
2013-01-31 00:26:00,26.8,21.1,30.04,WSW,237,2.7,2.7,79,0.00,,,0.00,VWS V13.01,2013-01-31 06:26:00,
2013-01-31 00:31:00,26.8,21.1,30.04,SW,235,0.0,0.0,79,0.00,,,0.00,VWS V13.01,2013-01-31 06:31:00,
2013-01-31 00:36:00,26.6,20.7,30.04,SW,235,0.0,0.0,78,0.00,,,0.00,VWS V13.01,2013-01-31 06:36:00,
2013-01-31 00:41:00,26.0,20.4,30.04,SSW,197,0.0,0.0,79,0.00,,,0.00,VWS V13.01,2013-01-31 06:41:00,
2013-01-31 00:46:00,25.7,20.1,30.04,South,184,0.0,0.0,79,0.00,,,0.00,VWS V13.01,2013-01-31 06:46:00,
2013-01-31 00:51:00,25.5,19.9,30.04,South,184,0.0,0.0,79,0.00,,,0.00,VWS V13.01,2013-01-31 06:51:00,
2013-01-31 00:56:00,25.3,20.0,30.04,South,184,0.0,0.0,80,0.00,,,0.00,VWS V13.01,2013-01-31 06:56:00,
2013-01-31 01:01:00,25.3,21.2,30.04,South,184,0.0,0.0,84,0.00,,,0.00,VWS V13.01,2013-01-31 07:01:00,
2013-01-31 01:06:00,25.0,21.6,30.04,SSW,200,0.0,0.0,87,0.00,,,0.00,VWS V13.01,2013-01-31 07:06:00,
2013-01-31 01:11:00,24.8,21.5,30.04,SSW,200,0.0,0.0,87,0.00,,,0.00,VWS V13.01,2013-01-31 07:11:00,
2013-01-31 01:16:00,24.8,21.7,30.04,SSW,200,0.0,0.0,88,0.00,,,0.00,VWS V13.01,2013-01-31 07:16:00,
2013-01-31 01:21:00,24.8,21.5,30.04,SSW,200,0.0,0.0,87,0.00,,,0.00,VWS V13.01,2013-01-31 07:21:00,
2013-01-31 01:26:00,24.6,21.6,30.04,SSW,200,0.0,0.0,88,0.00,,,0.00,VWS V13.01,2013-01-31 07:26:00,
2013-01-31 01:31:00,24.4,21.1,30.04,SSW,200,0.0,0.0,87,0.00,,,0.00,VWS V13.01,2013-01-31 07:31:00,
2013-01-31 01:36:00,24.4,21.1,30.04,SSW,200,0.0,0.0,87,0.00,,,0.00,VWS V13.01,2013-01-31 07:36:00,
2013-01-31 01:41:00,24.2,20.9,30.04,SSE,153,0.0,0.0,87,0.00,,,0.00,VWS V13.01,2013-01-31 07:41:00,
2013-01-31 01:46:00,24.1,20.8,30.04,SSE,153,0.0,0.0,87,0.00,,,0.00,VWS V13.01,2013-01-31 07:46:00,
2013-01-31 01:51:00,24.4,21.4,30.04,WSW,239,0.0,0.0,88,0.00,,,0.00,VWS V13.01,2013-01-31 07:51:00,
2013-01-31 01:56:00,25.0,22.2,30.04,WSW,239,0.0,0.0,89,0.00,,,0.00,VWS V13.01,2013-01-31 07:56:00,
2013-01-31 02:01:00,25.0,22.2,30.04,WSW,239,0.0,0.0,89,0.00,,,0.00,VWS V13.01,2013-01-31 08:01:00,
2013-01-31 02:06:00,25.0,22.2,30.04,SE,136,3.1,3.6,89,0.00,,,0.00,VWS V13.01,2013-01-31 08:06:00,
2013-01-31 02:11:00,24.4,21.4,30.04,SE,143,2.2,2.2,88,0.00,,,0.00,VWS V13.01,2013-01-31 08:11:00,
2013-01-31 02:16:00,24.6,21.6,30.04,SE,143,0.0,0.0,88,0.00,,,0.00,VWS V13.01,2013-01-31 08:16:00,
2013-01-31 02:21:00,24.4,21.4,30.04,SE,143,0.0,0.0,88,0.00,,,0.00,VWS V13.01,2013-01-31 08:21:00,
2013-01-31 02:26:00,24.4,21.4,30.04,SE,143,0.0,0.0,88,0.00,,,0.00,VWS V13.01,2013-01-31 08:26:00,
2013-01-31 02:31:00,24.2,21.7,30.04,North,356,0.0,0.0,90,0.00,,,0.00,VWS V13.01,2013-01-31 08:31:00,
2013-01-31 02:36:00,23.7,21.2,30.04,NNE,13,3.6,3.6,90,0.00,,,0.00,VWS V13.01,2013-01-31 08:36:00,
2013-01-31 02:41:00,23.5,21.5,30.04,NNE,29,3.1,3.6,92,0.00,,,0.00,VWS V13.01,2013-01-31 08:41:00,
2013-01-31 02:46:00,23.3,21.4,30.04,NE,37,0.0,0.0,92,0.00,,,0.00,VWS V13.01,2013-01-31 08:46:00,
2013-01-31 02:51:00,23.2,21.2,30.04,SE,124,3.1,3.1,92,0.00,,,0.00,VWS V13.01,2013-01-31 08:51:00,
2013-01-31 02:56:00,23.2,21.2,30.04,SSE,161,0.0,2.7,92,0.00,,,0.00,VWS V13.01,2013-01-31 08:56:00,
2013-01-31 03:01:00,23.2,21.2,30.04,SSE,161,0.0,0.0,92,0.00,,,0.00,VWS V13.01,2013-01-31 09:01:00,
2013-01-31 03:06:00,23.2,21.4,30.04,SSE,161,0.0,0.0,93,0.00,,,0.00,VWS V13.01,2013-01-31 09:06:00,
2013-01-31 03:11:00,23.2,21.7,30.04,SSE,161,0.0,0.0,94,0.00,,,0.00,VWS V13.01,2013-01-31 09:11:00,
2013-01-31 03:16:00,23.0,21.8,30.04,SSE,161,0.0,0.0,95,0.00,,,0.00,VWS V13.01,2013-01-31 09:16:00,
2013-01-31 03:21:00,22.8,21.8,30.04,SSE,161,0.0,0.0,96,0.00,,,0.00,VWS V13.01,2013-01-31 09:21:00,
2013-01-31 03:26:00,22.8,21.8,30.04,SSE,161,0.0,0.0,96,0.00,,,0.00,VWS V13.01,2013-01-31 09:26:00,
2013-01-31 03:31:00,22.6,21.6,30.04,South,185,0.0,0.0,96,0.00,,,0.00,VWS V13.01,2013-01-31 09:31:00,
2013-01-31 03:36:00,22.6,21.6,30.04,South,187,0.0,0.0,96,0.00,,,0.00,VWS V13.01,2013-01-31 09:36:00,
2013-01-31 03:41:00,22.6,21.6,30.04,South,187,0.0,0.0,96,0.00,,,0.00,VWS V13.01,2013-01-31 09:41:00,
2013-01-31 03:46:00,22.6,21.6,30.04,South,187,0.0,0.0,96,0.00,,,0.00,VWS V13.01,2013-01-31 09:46:00,
2013-01-31 03:51:00,22.4,21.5,30.04,South,187,0.0,0.0,96,0.00,,,0.00,VWS V13.01,2013-01-31 09:51:00,
2013-01-31 03:56:00,22.4,21.5,30.04,South,187,0.0,0.0,96,0.00,,,0.00,VWS V13.01,2013-01-31 09:56:00,
2013-01-31 04:01:00,22.4,21.5,30.04,South,187,0.0,0.0,96,0.00,,,0.00,VWS V13.01,2013-01-31 10:01:00,
2013-01-31 04:06:00,22.4,21.5,30.04,South,187,0.0,0.0,96,0.00,,,0.00,VWS V13.01,2013-01-31 10:06:00,
2013-01-31 04:11:00,22.3,21.3,30.04,South,187,0.0,0.0,96,0.00,,,0.00,VWS V13.01,2013-01-31 10:11:00,
2013-01-31 04:16:00,22.1,20.9,30.04,South,187,0.0,0.0,95,0.00,,,0.00,VWS V13.01,2013-01-31 10:16:00,
2013-01-31 04:21:00,22.1,21.1,30.04,South,187,0.0,0.0,96,0.00,,,0.00,VWS V13.01,2013-01-31 10:21:00,
2013-01-31 04:26:00,21.9,20.9,30.04,ENE,62,0.0,0.0,96,0.00,,,0.00,VWS V13.01,2013-01-31 10:26:00,
2013-01-31 04:31:00,21.7,20.8,30.04,ENE,62,0.0,0.0,96,0.00,,,0.00,VWS V13.01,2013-01-31 10:31:00,
2013-01-31 04:36:00,21.5,20.8,30.04,ENE,62,0.0,0.0,97,0.00,,,0.00,VWS V13.01,2013-01-31 10:36:00,
2013-01-31 04:41:00,21.7,21.0,30.04,ENE,62,0.0,0.0,97,0.00,,,0.00,VWS V13.01,2013-01-31 10:41:00,
2013-01-31 04:46:00,21.7,21.2,30.04,ENE,62,0.0,0.0,98,0.00,,,0.00,VWS V13.01,2013-01-31 10:46:00,
2013-01-31 04:51:00,21.5,21.1,30.04,ENE,62,0.0,0.0,98,0.00,,,0.00,VWS V13.01,2013-01-31 10:51:00,
2013-01-31 04:56:00,21.5,21.1,30.04,ENE,62,0.0,0.0,98,0.00,,,0.00,VWS V13.01,2013-01-31 10:56:00,
2013-01-31 05:01:00,21.5,21.3,30.04,NNE,30,0.0,0.0,99,0.00,,,0.00,VWS V13.01,2013-01-31 11:01:00,
2013-01-31 05:06:00,21.5,21.3,30.04,NNE,30,0.0,0.0,99,0.00,,,0.00,VWS V13.01,2013-01-31 11:06:00,
2013-01-31 05:11:00,21.4,21.1,30.04,NNE,30,0.0,0.0,99,0.00,,,0.00,VWS V13.01,2013-01-31 11:11:00,
2013-01-31 05:16:00,21.4,21.1,30.04,NNE,30,0.0,0.0,99,0.00,,,0.00,VWS V13.01,2013-01-31 11:16:00,
2013-01-31 05:21:00,21.4,21.1,30.04,NNE,30,0.0,0.0,99,0.00,,,0.00,VWS V13.01,2013-01-31 11:21:00,
2013-01-31 05:26:00,21.2,20.9,30.04,NNE,30,0.0,0.0,99,0.00,,,0.00,VWS V13.01,2013-01-31 11:26:00,
2013-01-31 05:31:00,21.0,20.8,30.04,NNE,30,0.0,0.0,99,0.00,,,0.00,VWS V13.01,2013-01-31 11:31:00,
2013-01-31 05:36:00,20.8,20.6,30.04,NNE,30,0.0,0.0,99,0.00,,,0.00,VWS V13.01,2013-01-31 11:36:00,
2013-01-31 05:41:00,20.8,20.6,30.04,NNE,30,0.0,0.0,99,0.00,,,0.00,VWS V13.01,2013-01-31 11:41:00,
2013-01-31 05:46:00,20.8,20.6,30.04,NNE,30,0.0,0.0,99,0.00,,,0.00,VWS V13.01,2013-01-31 11:46:00,
2013-01-31 05:51:00,20.8,20.6,30.04,NNE,30,0.0,0.0,99,0.00,,,0.00,VWS V13.01,2013-01-31 11:51:00,
2013-01-31 05:56:00,20.8,20.6,30.04,NNE,30,0.0,0.0,99,0.00,,,0.00,VWS V13.01,2013-01-31 11:56:00,
2013-01-31 06:01:00,20.8,20.6,30.07,NNE,30,0.0,0.0,99,0.00,,,0.00,VWS V13.01,2013-01-31 12:01:00,
2013-01-31 06:06:00,20.8,20.6,30.07,NNE,30,0.0,0.0,99,0.00,,,0.00,VWS V13.01,2013-01-31 12:06:00,
2013-01-31 06:11:00,20.6,20.4,30.07,NNE,30,0.0,0.0,99,0.00,,,0.00,VWS V13.01,2013-01-31 12:11:00,
2013-01-31 06:16:00,20.8,20.8,30.07,NNE,30,0.0,0.0,100,0.00,,,0.00,VWS V13.01,2013-01-31 12:16:00,
2013-01-31 06:21:00,20.8,20.8,30.07,NNE,30,0.0,0.0,100,0.00,,,0.00,VWS V13.01,2013-01-31 12:21:00,
2013-01-31 06:26:00,20.8,20.8,30.07,NNE,30,0.0,0.0,100,0.00,,,0.00,VWS V13.01,2013-01-31 12:26:00,
2013-01-31 06:31:00,20.8,20.8,30.07,NNE,30,0.0,0.0,100,0.00,,,0.00,VWS V13.01,2013-01-31 12:31:00,
2013-01-31 06:36:00,20.8,20.6,30.07,NNE,30,0.0,0.0,99,0.00,,,0.00,VWS V13.01,2013-01-31 12:36:00,
2013-01-31 06:41:00,20.8,20.6,30.07,NNE,30,0.0,0.0,99,0.00,,,0.00,VWS V13.01,2013-01-31 12:41:00,
2013-01-31 06:45:00,20.6,20.4,30.07,NNE,30,0.0,0.0,99,0.00,,,0.00,VWS V13.01,2013-01-31 12:45:00,
2013-01-31 06:50:00,20.6,20.4,30.07,NNE,30,0.0,0.0,99,0.00,,,0.00,VWS V13.01,2013-01-31 12:50:00,
2013-01-31 06:55:00,20.5,20.2,30.07,NNE,29,0.0,0.0,99,0.00,,,0.00,VWS V13.01,2013-01-31 12:55:00,
2013-01-31 07:00:00,20.5,20.0,30.07,NNE,30,0.0,0.0,98,0.00,,,0.00,VWS V13.01,2013-01-31 13:00:00,
2013-01-31 07:05:00,20.5,20.2,30.07,NNE,30,0.0,0.0,99,0.00,,,0.00,VWS V13.01,2013-01-31 13:05:00,
2013-01-31 07:10:00,20.5,20.0,30.07,NNE,30,0.0,0.0,98,0.00,,,0.00,VWS V13.01,2013-01-31 13:10:00,
2013-01-31 07:15:00,20.3,19.8,30.10,NNE,30,0.0,0.0,98,0.00,,,0.00,VWS V13.01,2013-01-31 13:15:00,
2013-01-31 07:20:00,20.1,19.6,30.10,NNE,30,0.0,0.0,98,0.00,,,0.00,VWS V13.01,2013-01-31 13:20:00,
2013-01-31 07:25:00,20.5,20.2,30.10,NNE,30,0.0,0.0,99,0.00,,,0.00,VWS V13.01,2013-01-31 13:25:00,
2013-01-31 07:30:00,20.5,20.2,30.07,NNE,30,0.0,0.0,99,0.00,,,0.00,VWS V13.01,2013-01-31 13:30:00,
2013-01-31 07:35:00,20.8,20.6,30.07,NNE,29,0.0,0.0,99,0.00,,,0.00,VWS V13.01,2013-01-31 13:35:00,
2013-01-31 07:40:00,21.0,21.0,30.07,North,6,0.0,0.0,100,0.00,,,0.00,VWS V13.01,2013-01-31 13:40:00,
2013-01-31 07:45:00,21.4,21.1,30.10,North,1,0.0,0.0,99,0.00,,,0.00,VWS V13.01,2013-01-31 13:45:00,
2013-01-31 07:50:00,21.7,21.5,30.10,North,2,0.0,0.0,99,0.00,,,0.00,VWS V13.01,2013-01-31 13:50:00,
2013-01-31 07:55:00,22.3,22.0,30.10,NNE,24,0.0,0.0,99,0.00,,,0.00,VWS V13.01,2013-01-31 13:55:00,
2013-01-31 08:00:00,22.8,22.6,30.10,ENE,60,0.0,0.0,99,0.00,,,0.00,VWS V13.01,2013-01-31 14:00:00,
2013-01-31 08:05:00,23.3,23.1,30.10,ENE,59,0.0,0.0,99,0.00,,,0.00,VWS V13.01,2013-01-31 14:05:00,
2013-01-31 08:10:00,23.7,23.2,30.10,ENE,59,0.0,0.0,98,0.00,,,0.00,VWS V13.01,2013-01-31 14:10:00,
2013-01-31 08:15:00,24.2,23.8,30.10,ENE,59,0.0,0.0,98,0.00,,,0.00,VWS V13.01,2013-01-31 14:15:00,
2013-01-31 08:20:00,25.0,23.7,30.10,NE,35,3.1,3.1,95,0.00,,,0.00,VWS V13.01,2013-01-31 14:20:00,
2013-01-31 08:25:00,25.5,23.5,30.10,NNE,21,0.0,0.0,92,0.00,,,0.00,VWS V13.01,2013-01-31 14:25:00,
2013-01-31 08:30:00,26.0,24.0,30.10,NNE,21,0.0,0.0,92,0.00,,,0.00,VWS V13.01,2013-01-31 14:30:00,
2013-01-31 08:35:00,27.3,24.8,30.10,NNE,21,0.0,0.0,90,0.00,,,0.00,VWS V13.01,2013-01-31 14:35:00,
2013-01-31 08:40:00,28.2,24.0,30.10,NNE,31,0.0,0.0,84,0.00,,,0.00,VWS V13.01,2013-01-31 14:40:00,
2013-01-31 08:45:00,28.7,23.1,30.10,NE,40,2.2,2.2,79,0.00,,,0.00,VWS V13.01,2013-01-31 14:45:00,
2013-01-31 08:50:00,29.1,23.7,30.10,NE,40,0.0,0.0,80,0.00,,,0.00,VWS V13.01,2013-01-31 14:50:00,
2013-01-31 08:55:00,30.2,24.2,30.10,NNE,18,0.0,0.0,78,0.00,,,0.00,VWS V13.01,2013-01-31 14:55:00,
2013-01-31 09:00:00,30.4,23.1,30.10,NNE,25,3.6,4.0,74,0.00,,,0.00,VWS V13.01,2013-01-31 15:00:00,
2013-01-31 09:05:00,30.4,22.8,30.10,NNE,19,3.6,3.6,73,0.00,,,0.00,VWS V13.01,2013-01-31 15:05:00,
2013-01-31 09:10:00,30.7,23.8,30.10,NNE,25,2.2,2.2,75,0.00,,,0.00,VWS V13.01,2013-01-31 15:10:00,
2013-01-31 09:15:00,31.3,24.0,30.10,ENE,75,2.7,3.6,74,0.00,,,0.00,VWS V13.01,2013-01-31 15:15:00,
2013-01-31 09:20:00,32.2,23.1,30.10,NE,42,2.7,3.1,69,0.00,,,0.00,VWS V13.01,2013-01-31 15:20:00,
2013-01-31 09:25:00,32.5,22.8,30.10,NE,37,2.2,2.7,67,0.00,,,0.00,VWS V13.01,2013-01-31 15:25:00,
2013-01-31 09:30:00,33.1,24.4,30.10,South,171,2.7,3.6,70,0.00,,,0.00,VWS V13.01,2013-01-31 15:30:00,
2013-01-31 09:35:00,33.1,24.0,30.10,South,183,2.7,4.0,69,0.00,,,0.00,VWS V13.01,2013-01-31 15:35:00,
2013-01-31 09:40:00,33.2,24.2,30.10,ENE,75,0.0,0.0,69,0.00,,,0.00,VWS V13.01,2013-01-31 15:40:00,
2013-01-31 09:45:00,34.0,24.2,30.10,NE,47,2.7,2.7,67,0.00,,,0.00,VWS V13.01,2013-01-31 15:45:00,
2013-01-31 09:50:00,34.1,23.2,30.10,WNW,302,0.0,0.0,64,0.00,,,0.00,VWS V13.01,2013-01-31 15:50:00,
2013-01-31 09:55:00,34.5,24.0,30.10,SSE,156,3.1,3.1,65,0.00,,,0.00,VWS V13.01,2013-01-31 15:55:00,
2013-01-31 10:00:00,34.5,24.0,30.10,SSE,157,2.7,2.7,65,0.00,,,0.00,VWS V13.01,2013-01-31 16:00:00,
2013-01-31 10:05:00,34.3,24.2,30.10,West,275,0.0,3.1,66,0.00,,,0.00,VWS V13.01,2013-01-31 16:05:00,
2013-01-31 10:10:00,34.3,23.0,30.10,WNW,302,2.7,2.7,63,0.00,,,0.00,VWS V13.01,2013-01-31 16:10:00,
2013-01-31 10:15:00,34.9,23.9,30.13,North,351,0.0,0.0,64,0.00,,,0.00,VWS V13.01,2013-01-31 16:15:00,
2013-01-31 10:20:00,35.4,23.3,30.13,West,277,0.0,2.2,61,0.00,,,0.00,VWS V13.01,2013-01-31 16:20:00,
2013-01-31 10:25:00,35.9,24.2,30.13,WNW,299,4.0,4.0,62,0.00,,,0.00,VWS V13.01,2013-01-31 16:25:00,
2013-01-31 10:30:00,36.5,25.1,30.13,WSW,254,4.0,4.0,63,0.00,,,0.00,VWS V13.01,2013-01-31 16:30:00,
2013-01-31 10:35:00,37.2,25.4,30.13,SW,222,0.0,0.0,62,0.00,,,0.00,VWS V13.01,2013-01-31 16:35:00,
2013-01-31 10:40:00,37.9,25.3,30.13,SSE,160,3.6,3.6,60,0.00,,,0.00,VWS V13.01,2013-01-31 16:40:00,
2013-01-31 10:45:00,38.6,26.0,30.13,SSW,192,2.2,3.6,60,0.00,,,0.00,VWS V13.01,2013-01-31 16:45:00,
2013-01-31 10:50:00,40.1,26.5,30.13,East,101,2.7,3.1,58,0.00,,,0.00,VWS V13.01,2013-01-31 16:50:00,
2013-01-31 10:55:00,40.8,27.6,30.13,SSE,162,0.0,0.0,59,0.00,,,0.00,VWS V13.01,2013-01-31 16:55:00,
2013-01-31 11:00:00,41.3,27.7,30.13,SW,236,3.6,5.4,58,0.00,,,0.00,VWS V13.01,2013-01-31 17:00:00,
2013-01-31 11:05:00,41.3,26.4,30.13,WSW,239,4.9,4.9,55,0.00,,,0.00,VWS V13.01,2013-01-31 17:05:00,
2013-01-31 11:10:00,41.2,26.7,30.13,SW,218,5.8,5.8,56,0.00,,,0.00,VWS V13.01,2013-01-31 17:10:00,
2013-01-31 11:15:00,41.2,25.3,30.13,SW,220,6.3,6.3,53,0.00,,,0.00,VWS V13.01,2013-01-31 17:15:00,
2013-01-31 11:20:00,41.5,25.2,30.13,WSW,244,8.3,8.3,52,0.00,,,0.00,VWS V13.01,2013-01-31 17:20:00,
2013-01-31 11:25:00,41.5,25.2,30.13,SW,230,6.7,6.7,52,0.00,,,0.00,VWS V13.01,2013-01-31 17:25:00,
2013-01-31 11:30:00,41.7,25.9,30.13,SSW,198,5.8,5.8,53,0.00,,,0.00,VWS V13.01,2013-01-31 17:30:00,
2013-01-31 11:35:00,42.4,26.5,30.13,SSW,196,3.6,4.0,53,0.00,,,0.00,VWS V13.01,2013-01-31 17:35:00,
2013-01-31 11:40:00,43.0,26.6,30.13,SW,220,6.3,8.7,52,0.00,,,0.00,VWS V13.01,2013-01-31 17:40:00,
2013-01-31 11:45:00,43.3,26.4,30.13,WSW,249,4.0,4.0,51,0.00,,,0.00,VWS V13.01,2013-01-31 17:45:00,
2013-01-31 11:50:00,44.0,27.1,30.13,WSW,241,6.3,7.6,51,0.00,,,0.00,VWS V13.01,2013-01-31 17:50:00,
2013-01-31 11:55:00,44.4,27.4,30.13,WSW,245,5.4,5.4,51,0.00,,,0.00,VWS V13.01,2013-01-31 17:55:00,
2013-01-31 12:00:00,44.8,27.3,30.10,South,172,5.8,6.3,50,0.00,,,0.00,VWS V13.01,2013-01-31 18:00:00,
2013-01-31 12:05:00,45.1,28.1,30.10,SSE,168,6.3,6.3,51,0.00,,,0.00,VWS V13.01,2013-01-31 18:05:00,
2013-01-31 12:10:00,45.5,27.9,30.10,SE,139,2.2,3.6,50,0.00,,,0.00,VWS V13.01,2013-01-31 18:10:00,
2013-01-31 12:15:00,46.2,28.1,30.10,SSE,163,8.3,8.3,49,0.00,,,0.00,VWS V13.01,2013-01-31 18:15:00,
2013-01-31 12:20:00,46.6,28.4,30.10,SSE,166,5.8,6.3,49,0.00,,,0.00,VWS V13.01,2013-01-31 18:20:00,
2013-01-31 12:25:00,46.6,28.4,30.10,South,169,5.4,8.1,49,0.00,,,0.00,VWS V13.01,2013-01-31 18:25:00,
2013-01-31 12:30:00,46.7,28.6,30.10,SE,124,2.7,8.1,49,0.00,,,0.00,VWS V13.01,2013-01-31 18:30:00,
2013-01-31 12:35:00,47.5,29.3,30.10,South,188,5.4,6.3,49,0.00,,,0.00,VWS V13.01,2013-01-31 18:35:00,
2013-01-31 12:40:00,47.8,29.6,30.10,SE,143,6.7,6.7,49,0.00,,,0.00,VWS V13.01,2013-01-31 18:40:00,
2013-01-31 12:45:00,48.4,30.1,30.10,SSW,195,8.3,8.3,49,0.00,,,0.00,VWS V13.01,2013-01-31 18:45:00,
2013-01-31 12:50:00,48.5,29.8,30.10,SSW,209,5.8,8.1,48,0.00,,,0.00,VWS V13.01,2013-01-31 18:50:00,
2013-01-31 12:55:00,49.1,30.3,30.10,SSW,206,2.7,4.9,48,0.00,,,0.00,VWS V13.01,2013-01-31 18:55:00,
2013-01-31 13:00:00,49.6,30.8,30.07,SSW,195,6.3,6.3,48,0.00,,,0.00,VWS V13.01,2013-01-31 19:00:00,
2013-01-31 13:05:00,49.4,30.1,30.07,WSW,250,2.7,7.6,47,0.00,,,0.00,VWS V13.01,2013-01-31 19:05:00,
2013-01-31 13:10:00,50.0,30.6,30.07,SSW,198,4.0,5.4,47,0.00,,,0.00,VWS V13.01,2013-01-31 19:10:00,
2013-01-31 13:15:00,50.7,31.2,30.07,South,188,5.8,8.3,47,0.00,,,0.00,VWS V13.01,2013-01-31 19:15:00,
2013-01-31 13:20:00,50.9,30.9,30.07,SW,216,5.4,8.1,46,0.00,,,0.00,VWS V13.01,2013-01-31 19:20:00,
2013-01-31 13:25:00,50.9,30.9,30.07,South,186,7.6,8.1,46,0.00,,,0.00,VWS V13.01,2013-01-31 19:25:00,
2013-01-31 13:30:00,50.7,31.2,30.07,SSW,206,6.7,8.1,47,0.00,,,0.00,VWS V13.01,2013-01-31 19:30:00,
2013-01-31 13:35:00,50.7,31.2,30.07,SE,143,4.5,5.4,47,0.00,,,0.00,VWS V13.01,2013-01-31 19:35:00,
2013-01-31 13:40:00,51.2,31.2,30.07,SSE,156,5.4,8.1,46,0.00,,,0.00,VWS V13.01,2013-01-31 19:40:00,
2013-01-31 13:45:00,51.4,31.4,30.07,SW,220,5.4,6.3,46,0.00,,,0.00,VWS V13.01,2013-01-31 19:45:00,
2013-01-31 13:50:00,52.0,30.2,30.07,SW,228,10.5,10.5,43,0.00,,,0.00,VWS V13.01,2013-01-31 19:50:00,
2013-01-31 13:55:00,52.3,30.5,30.07,SW,235,11.0,11.0,43,0.00,,,0.00,VWS V13.01,2013-01-31 19:55:00,
2013-01-31 14:00:00,52.5,30.7,30.07,SW,233,10.1,13.2,43,0.00,,,0.00,VWS V13.01,2013-01-31 20:00:00,
2013-01-31 14:05:00,52.9,29.2,30.07,SW,236,11.4,12.8,40,0.00,,,0.00,VWS V13.01,2013-01-31 20:05:00,
2013-01-31 14:10:00,53.0,29.4,30.07,WSW,246,12.3,12.8,40,0.00,,,0.00,VWS V13.01,2013-01-31 20:10:00,
2013-01-31 14:15:00,52.9,29.2,30.04,SW,232,5.8,8.3,40,0.00,,,0.00,VWS V13.01,2013-01-31 20:15:00,
2013-01-31 14:19:00,53.4,29.7,30.04,SW,234,15.0,15.4,40,0.00,,,0.00,VWS V13.01,2013-01-31 20:19:00,
2013-01-31 14:24:00,53.8,30.0,30.04,SW,230,9.2,9.2,40,0.00,,,0.00,VWS V13.01,2013-01-31 20:24:00,
2013-01-31 14:29:00,54.1,30.4,30.04,SW,232,18.8,18.8,40,0.00,,,0.00,VWS V13.01,2013-01-31 20:29:00,
2013-01-31 14:34:00,54.1,30.4,30.04,SW,229,8.7,10.5,40,0.00,,,0.00,VWS V13.01,2013-01-31 20:34:00,
2013-01-31 14:39:00,54.3,30.5,30.04,SW,227,12.8,12.8,40,0.00,,,0.00,VWS V13.01,2013-01-31 20:39:00,
2013-01-31 14:44:00,54.3,30.5,30.07,WSW,254,13.6,15.9,40,0.00,,,0.00,VWS V13.01,2013-01-31 20:44:00,
2013-01-31 14:49:00,54.3,30.5,30.07,SW,233,10.5,12.3,40,0.00,,,0.00,VWS V13.01,2013-01-31 20:49:00,
2013-01-31 14:54:00,54.8,31.0,30.07,WSW,239,10.5,10.5,40,0.00,,,0.00,VWS V13.01,2013-01-31 20:54:00,
2013-01-31 14:59:00,54.7,30.8,30.04,SW,224,8.3,13.6,40,0.00,,,0.00,VWS V13.01,2013-01-31 20:59:00,
2013-01-31 15:04:00,54.8,31.0,30.04,SW,221,9.6,10.1,40,0.00,,,0.00,VWS V13.01,2013-01-31 21:04:00,
2013-01-31 15:09:00,54.8,31.0,30.04,WSW,242,10.5,12.8,40,0.00,,,0.00,VWS V13.01,2013-01-31 21:09:00,
2013-01-31 15:14:00,54.8,31.0,30.04,SW,221,8.3,9.2,40,0.00,,,0.00,VWS V13.01,2013-01-31 21:14:00,
2013-01-31 15:19:00,54.8,31.0,30.04,SW,232,5.8,8.1,40,0.00,,,0.00,VWS V13.01,2013-01-31 21:19:00,
2013-01-31 15:24:00,54.7,30.8,30.04,WSW,246,5.8,8.7,40,0.00,,,0.00,VWS V13.01,2013-01-31 21:24:00,
2013-01-31 15:29:00,54.8,31.0,30.04,SW,225,9.6,11.0,40,0.00,,,0.00,VWS V13.01,2013-01-31 21:29:00,
2013-01-31 15:34:00,54.8,31.0,30.04,WSW,252,4.0,5.4,40,0.00,,,0.00,VWS V13.01,2013-01-31 21:34:00,
2013-01-31 15:39:00,55.2,30.7,30.04,West,265,8.1,8.1,39,0.00,,,0.00,VWS V13.01,2013-01-31 21:39:00,
2013-01-31 15:44:00,55.9,31.3,30.04,West,264,5.8,10.1,39,0.00,,,0.00,VWS V13.01,2013-01-31 21:44:00,
2013-01-31 15:49:00,56.1,31.5,30.04,WSW,255,8.7,12.3,39,0.00,,,0.00,VWS V13.01,2013-01-31 21:49:00,
2013-01-31 15:54:00,56.1,31.5,30.04,West,260,10.1,10.5,39,0.00,,,0.00,VWS V13.01,2013-01-31 21:54:00,
2013-01-31 15:59:00,55.7,31.2,30.04,WNW,295,5.4,7.6,39,0.00,,,0.00,VWS V13.01,2013-01-31 21:59:00,
2013-01-31 16:04:00,55.7,31.2,30.04,WSW,246,8.1,8.1,39,0.00,,,0.00,VWS V13.01,2013-01-31 22:04:00,
2013-01-31 16:09:00,55.6,31.0,30.04,WSW,258,13.2,13.2,39,0.00,,,0.00,VWS V13.01,2013-01-31 22:09:00,
2013-01-31 16:14:00,55.7,31.2,30.07,WSW,257,8.1,8.7,39,0.00,,,0.00,VWS V13.01,2013-01-31 22:14:00,
2013-01-31 16:19:00,55.6,31.0,30.07,West,264,8.3,8.3,39,0.00,,,0.00,VWS V13.01,2013-01-31 22:19:00,
2013-01-31 16:24:00,55.6,31.0,30.07,West,265,5.8,6.3,39,0.00,,,0.00,VWS V13.01,2013-01-31 22:24:00,
2013-01-31 16:29:00,55.7,31.2,30.07,West,273,6.3,6.3,39,0.00,,,0.00,VWS V13.01,2013-01-31 22:29:00,
2013-01-31 16:34:00,55.9,31.3,30.07,NW,319,5.4,5.4,39,0.00,,,0.00,VWS V13.01,2013-01-31 22:34:00,
2013-01-31 16:39:00,55.2,29.4,30.07,WNW,292,10.5,10.5,37,0.00,,,0.00,VWS V13.01,2013-01-31 22:39:00,
2013-01-31 16:44:00,52.7,29.1,30.07,NW,315,13.2,13.2,40,0.00,,,0.00,VWS V13.01,2013-01-31 22:44:00,
2013-01-31 16:49:00,51.2,29.5,30.07,North,355,7.6,7.6,43,0.00,,,0.00,VWS V13.01,2013-01-31 22:49:00,
2013-01-31 16:54:00,50.9,29.2,30.07,NNW,336,10.1,10.1,43,0.00,,,0.00,VWS V13.01,2013-01-31 22:54:00,
2013-01-31 16:59:00,50.5,28.9,30.10,NW,315,5.8,8.3,43,0.00,,,0.00,VWS V13.01,2013-01-31 22:59:00,
2013-01-31 17:04:00,50.3,28.7,30.10,NW,312,8.3,8.7,43,0.00,,,0.00,VWS V13.01,2013-01-31 23:04:00,
2013-01-31 17:09:00,49.8,28.2,30.10,WNW,294,5.8,6.3,43,0.00,,,0.00,VWS V13.01,2013-01-31 23:09:00,
2013-01-31 17:14:00,49.4,28.5,30.10,NNW,331,8.1,8.1,44,0.00,,,0.00,VWS V13.01,2013-01-31 23:14:00,
2013-01-31 17:19:00,48.9,29.0,30.10,NW,314,8.3,8.3,46,0.00,,,0.00,VWS V13.01,2013-01-31 23:19:00,
2013-01-31 17:24:00,48.7,28.9,30.10,NNW,341,5.4,5.8,46,0.00,,,0.00,VWS V13.01,2013-01-31 23:24:00,
2013-01-31 17:29:00,48.4,28.5,30.10,NW,317,5.4,5.8,46,0.00,,,0.00,VWS V13.01,2013-01-31 23:29:00,
2013-01-31 17:34:00,48.0,28.2,30.10,NW,326,5.4,5.8,46,0.00,,,0.00,VWS V13.01,2013-01-31 23:34:00,
2013-01-31 17:39:00,47.5,28.2,30.10,NW,316,4.0,6.3,47,0.00,,,0.00,VWS V13.01,2013-01-31 23:39:00,
2013-01-31 17:44:00,47.1,27.9,30.13,NW,322,5.4,6.3,47,0.00,,,0.00,VWS V13.01,2013-01-31 23:44:00,
2013-01-31 17:49:00,46.7,27.6,30.13,NNW,347,6.3,6.7,47,0.00,,,0.00,VWS V13.01,2013-01-31 23:49:00,
2013-01-31 17:54:00,46.4,27.3,30.13,NNW,337,8.1,11.0,47,0.00,,,0.00,VWS V13.01,2013-01-31 23:54:00,
2013-01-31 17:59:00,46.2,27.1,30.13,NNW,338,4.0,5.4,47,0.00,,,0.00,VWS V13.01,2013-01-31 23:59:00,
2013-01-31 18:04:00,46.0,26.9,30.13,NNW,327,5.4,5.4,47,0.00,,,0.00,VWS V13.01,2013-02-01 00:04:00,
2013-01-31 18:09:00,45.8,26.8,30.13,North,350,4.0,4.0,47,0.00,,,0.00,VWS V13.01,2013-02-01 00:09:00,
2013-01-31 18:14:00,45.7,26.6,30.13,NNW,334,5.8,5.8,47,0.00,,,0.00,VWS V13.01,2013-02-01 00:14:00,
2013-01-31 18:19:00,45.3,26.3,30.13,NW,320,2.2,2.2,47,0.00,,,0.00,VWS V13.01,2013-02-01 00:19:00,
2013-01-31 18:24:00,45.1,26.6,30.13,NNW,340,4.0,4.0,48,0.00,,,0.00,VWS V13.01,2013-02-01 00:24:00,
2013-01-31 18:29:00,44.9,26.5,30.16,NNE,25,5.4,5.4,48,0.00,,,0.00,VWS V13.01,2013-02-01 00:29:00,
2013-01-31 18:34:00,44.9,26.5,30.16,WNW,293,3.6,6.3,48,0.00,,,0.00,VWS V13.01,2013-02-01 00:34:00,
2013-01-31 18:39:00,44.9,26.5,30.16,WSW,252,4.0,5.8,48,0.00,,,0.00,VWS V13.01,2013-02-01 00:39:00,
2013-01-31 18:44:00,44.8,26.3,30.19,NW,309,6.3,6.3,48,0.00,,,0.00,VWS V13.01,2013-02-01 00:44:00,
2013-01-31 18:49:00,44.8,26.3,30.19,WNW,286,5.4,5.8,48,0.00,,,0.00,VWS V13.01,2013-02-01 00:49:00,
2013-01-31 18:54:00,44.4,26.5,30.19,WNW,296,5.8,5.8,49,0.00,,,0.00,VWS V13.01,2013-02-01 00:54:00,
2013-01-31 18:59:00,44.0,26.1,30.22,WSW,250,7.6,7.6,49,0.00,,,0.00,VWS V13.01,2013-02-01 00:59:00,
2013-01-31 19:04:00,43.5,26.1,30.22,WNW,285,4.0,6.3,50,0.00,,,0.00,VWS V13.01,2013-02-01 01:04:00,
2013-01-31 19:09:00,42.8,25.5,30.22,WNW,287,5.8,6.3,50,0.00,,,0.00,VWS V13.01,2013-02-01 01:09:00,
2013-01-31 19:14:00,42.2,25.4,30.22,West,264,6.3,6.3,51,0.00,,,0.00,VWS V13.01,2013-02-01 01:14:00,
2013-01-31 19:19:00,41.9,25.1,30.22,NW,324,7.2,8.7,51,0.00,,,0.00,VWS V13.01,2013-02-01 01:19:00,
2013-01-31 19:24:00,41.5,24.3,30.22,WNW,299,6.3,10.1,50,0.00,,,0.00,VWS V13.01,2013-02-01 01:24:00,
2013-01-31 19:29:00,41.2,24.0,30.25,NW,319,10.1,10.1,50,0.00,,,0.00,VWS V13.01,2013-02-01 01:29:00,
2013-01-31 19:34:00,41.0,23.8,30.25,WSW,238,5.8,8.7,50,0.00,,,0.00,VWS V13.01,2013-02-01 01:34:00,
2013-01-31 19:39:00,40.8,23.6,30.25,WNW,287,5.4,8.1,50,0.00,,,0.00,VWS V13.01,2013-02-01 01:39:00,
2013-01-31 19:44:00,40.8,23.1,30.25,West,265,5.8,6.3,49,0.00,,,0.00,VWS V13.01,2013-02-01 01:44:00,
2013-01-31 19:49:00,40.4,22.8,30.25,West,271,2.7,6.3,49,0.00,,,0.00,VWS V13.01,2013-02-01 01:49:00,
2013-01-31 19:54:00,40.3,23.1,30.25,WSW,255,4.0,4.5,50,0.00,,,0.00,VWS V13.01,2013-02-01 01:54:00,
2013-01-31 19:59:00,39.9,22.8,30.28,West,268,5.4,7.6,50,0.00,,,0.00,VWS V13.01,2013-02-01 01:59:00,
2013-01-31 20:04:00,39.5,22.0,30.28,West,265,6.3,8.3,49,0.00,,,0.00,VWS V13.01,2013-02-01 02:04:00,
2013-01-31 20:09:00,39.0,21.5,30.28,WSW,254,5.4,6.3,49,0.00,,,0.00,VWS V13.01,2013-02-01 02:09:00,
2013-01-31 20:14:00,38.6,21.6,30.28,WSW,256,8.1,8.1,50,0.00,,,0.00,VWS V13.01,2013-02-01 02:14:00,
2013-01-31 20:19:00,38.5,21.5,30.28,WSW,253,5.8,6.3,50,0.00,,,0.00,VWS V13.01,2013-02-01 02:19:00,
2013-01-31 20:24:00,38.3,20.8,30.28,NNW,339,5.8,8.1,49,0.00,,,0.00,VWS V13.01,2013-02-01 02:24:00,
2013-01-31 20:29:00,38.1,20.6,30.31,WSW,240,7.6,8.7,49,0.00,,,0.00,VWS V13.01,2013-02-01 02:29:00,
2013-01-31 20:34:00,37.6,20.1,30.31,WNW,294,5.8,10.1,49,0.00,,,0.00,VWS V13.01,2013-02-01 02:34:00,
2013-01-31 20:39:00,37.2,19.8,30.31,West,268,8.3,11.0,49,0.00,,,0.00,VWS V13.01,2013-02-01 02:39:00,
2013-01-31 20:44:00,36.8,19.5,30.31,West,271,8.1,11.4,49,0.00,,,0.00,VWS V13.01,2013-02-01 02:44:00,
2013-01-31 20:49:00,36.7,19.3,30.31,West,260,5.8,10.5,49,0.00,,,0.00,VWS V13.01,2013-02-01 02:49:00,
2013-01-31 20:53:00,36.5,19.1,30.31,WNW,301,4.9,5.4,49,0.00,,,0.00,VWS V13.01,2013-02-01 02:53:00,
2013-01-31 20:58:00,36.1,19.3,30.31,WNW,301,6.3,6.3,50,0.00,,,0.00,VWS V13.01,2013-02-01 02:58:00,
2013-01-31 21:03:00,35.8,18.5,30.31,WNW,303,10.1,11.0,49,0.00,,,0.00,VWS V13.01,2013-02-01 03:03:00,
2013-01-31 21:08:00,35.4,18.6,30.31,WSW,241,7.2,10.5,50,0.00,,,0.00,VWS V13.01,2013-02-01 03:08:00,
2013-01-31 21:13:00,35.2,18.5,30.34,WNW,292,5.4,8.3,50,0.00,,,0.00,VWS V13.01,2013-02-01 03:13:00,
2013-01-31 21:18:00,34.9,18.1,30.34,NW,305,5.8,6.3,50,0.00,,,0.00,VWS V13.01,2013-02-01 03:18:00,
2013-01-31 21:23:00,34.3,17.6,30.34,WNW,299,6.3,6.3,50,0.00,,,0.00,VWS V13.01,2013-02-01 03:23:00,
2013-01-31 21:28:00,34.1,17.5,30.34,WNW,301,5.8,5.8,50,0.00,,,0.00,VWS V13.01,2013-02-01 03:28:00,
2013-01-31 21:33:00,34.1,17.5,30.34,West,274,6.3,8.7,50,0.00,,,0.00,VWS V13.01,2013-02-01 03:33:00,
2013-01-31 21:38:00,34.1,17.5,30.34,NW,321,7.6,7.6,50,0.00,,,0.00,VWS V13.01,2013-02-01 03:38:00,
2013-01-31 21:43:00,33.8,17.1,30.34,NW,306,4.0,5.8,50,0.00,,,0.00,VWS V13.01,2013-02-01 03:43:00,
2013-01-31 21:48:00,33.6,16.5,30.34,NW,305,3.6,5.8,49,0.00,,,0.00,VWS V13.01,2013-02-01 03:48:00,
2013-01-31 21:53:00,33.1,16.5,30.34,WNW,290,4.9,4.9,50,0.00,,,0.00,VWS V13.01,2013-02-01 03:53:00,
2013-01-31 21:58:00,32.7,16.1,30.34,NNW,335,3.6,4.9,50,0.00,,,0.00,VWS V13.01,2013-02-01 03:58:00,
2013-01-31 22:03:00,32.3,14.4,30.34,NW,326,4.5,4.5,47,0.00,,,0.00,VWS V13.01,2013-02-01 04:03:00,
2013-01-31 22:08:00,32.2,13.2,30.34,NW,323,4.0,4.9,45,0.00,,,0.00,VWS V13.01,2013-02-01 04:08:00,
2013-01-31 22:13:00,32.0,13.1,30.37,North,354,3.1,4.0,45,0.00,,,0.00,VWS V13.01,2013-02-01 04:13:00,
2013-01-31 22:18:00,31.8,12.9,30.37,NNW,346,2.2,2.2,45,0.00,,,0.00,VWS V13.01,2013-02-01 04:18:00,
2013-01-31 22:23:00,31.4,12.6,30.37,North,11,3.1,4.0,45,0.00,,,0.00,VWS V13.01,2013-02-01 04:23:00,
2013-01-31 22:28:00,31.1,12.2,30.37,North,353,3.1,5.8,45,0.00,,,0.00,VWS V13.01,2013-02-01 04:28:00,
2013-01-31 22:33:00,30.9,12.1,30.37,NNW,334,3.6,4.0,45,0.00,,,0.00,VWS V13.01,2013-02-01 04:33:00,
2013-01-31 22:38:00,30.5,11.7,30.37,NW,306,3.6,3.6,45,0.00,,,0.00,VWS V13.01,2013-02-01 04:38:00,
2013-01-31 22:43:00,30.5,11.7,30.37,North,1,3.1,3.6,45,0.00,,,0.00,VWS V13.01,2013-02-01 04:43:00,
2013-01-31 22:48:00,30.4,11.6,30.37,North,351,4.0,7.6,45,0.00,,,0.00,VWS V13.01,2013-02-01 04:48:00,
2013-01-31 22:53:00,30.2,11.4,30.37,North,353,4.0,4.0,45,0.00,,,0.00,VWS V13.01,2013-02-01 04:53:00,
2013-01-31 22:58:00,29.8,11.1,30.37,NW,316,3.1,6.3,45,0.00,,,0.00,VWS V13.01,2013-02-01 04:58:00,
2013-01-31 23:00:00,29.6,10.9,30.37,North,354,4.9,6.7,45,0.00,,,0.00,VWS V13.01,2013-02-01 05:00:00,
2013-01-31 23:03:00,29.6,10.9,30.37,NNW,342,4.0,4.0,45,0.00,,,0.00,VWS V13.01,2013-02-01 05:03:00,
2013-01-31 23:08:00,29.3,10.6,30.37,NW,313,5.4,5.8,45,0.00,,,0.00,VWS V13.01,2013-02-01 05:08:00,
2013-01-31 23:13:00,29.1,10.4,30.37,NNW,330,4.0,4.0,45,0.00,,,0.00,VWS V13.01,2013-02-01 05:13:00,
2013-01-31 23:18:00,28.7,10.1,30.37,NNW,331,4.0,4.9,45,0.00,,,0.00,VWS V13.01,2013-02-01 05:18:00,
2013-01-31 23:23:00,28.6,9.9,30.37,NNW,329,4.9,5.4,45,0.00,,,0.00,VWS V13.01,2013-02-01 05:23:00,
2013-01-31 23:28:00,28.4,9.8,30.37,NNW,338,4.0,4.0,45,0.00,,,0.00,VWS V13.01,2013-02-01 05:28:00,
2013-01-31 23:33:00,28.2,9.6,30.37,NNW,347,2.2,3.6,45,0.00,,,0.00,VWS V13.01,2013-02-01 05:33:00,
2013-01-31 23:38:00,28.0,9.4,30.37,NNW,333,4.9,6.3,45,0.00,,,0.00,VWS V13.01,2013-02-01 05:38:00,
2013-01-31 23:43:00,28.0,9.4,30.37,North,1,5.8,5.8,45,0.00,,,0.00,VWS V13.01,2013-02-01 05:43:00,
2013-01-31 23:48:00,27.8,9.3,30.40,North,349,3.6,3.6,45,0.00,,,0.00,VWS V13.01,2013-02-01 05:48:00,
2013-01-31 23:53:00,27.8,9.3,30.40,NNW,344,3.6,4.0,45,0.00,,,0.00,VWS V13.01,2013-02-01 05:53:00,
2013-01-31 23:58:00,27.7,9.1,30.40,NNW,332,3.1,3.1,45,0.00,,,0.00,VWS V13.01,2013-02-01 05:58:00,